createdAt,value
2018-09-01T00:01:11.084Z,99660.06
2018-09-01T00:03:38.787Z,99660.90
2018-09-01T00:06:06.526Z,99658.15
2018-09-01T00:08:34.204Z,99666.38
2018-09-01T00:11:01.913Z,99660.34
2018-09-01T00:13:29.619Z,99663.34
2018-09-01T00:15:57.307Z,99661.14
2018-09-01T00:18:25.014Z,99658.11
2018-09-01T00:20:52.745Z,99661.94
2018-09-01T00:23:20.442Z,99669.30
2018-09-01T00:25:48.133Z,99667.34
2018-09-01T00:28:15.883Z,99662.95
2018-09-01T00:30:43.647Z,99665.98
2018-09-01T00:33:11.322Z,99668.13
2018-09-01T00:35:39.032Z,99668.33
2018-09-01T00:38:12.348Z,99669.91
2018-09-01T00:40:40.084Z,99677.81
2018-09-01T00:43:07.790Z,99678.09
2018-09-01T00:45:35.475Z,99679.20
2018-09-01T00:48:03.209Z,99675.32
2018-09-01T00:50:30.912Z,99673.43
2018-09-01T00:52:58.615Z,99680.55
2018-09-01T00:55:32.246Z,99676.67
2018-09-01T00:58:00.413Z,99671.38
2018-09-01T01:00:28.107Z,99673.84
2018-09-01T01:02:55.838Z,99676.84
2018-09-01T01:05:23.567Z,99672.70
2018-09-01T01:07:51.358Z,99668.88
2018-09-01T01:10:19.089Z,99673.80
2018-09-01T01:12:47.808Z,99675.43
2018-09-01T01:15:15.514Z,99676.19
2018-09-01T01:17:43.250Z,99678.12
2018-09-01T01:20:11.002Z,99671.78
2018-09-01T01:22:38.740Z,99674.70
2018-09-01T01:25:06.803Z,99672.00
2018-09-01T01:27:34.804Z,99680.45
2018-09-01T01:30:02.790Z,99678.52
2018-09-01T01:32:30.608Z,99676.32
2018-09-01T01:35:01.287Z,99679.28
2018-09-01T01:37:29.014Z,99672.40
2018-09-01T01:39:56.722Z,99677.83
2018-09-01T01:42:24.492Z,99682.23
2018-09-01T01:44:52.182Z,99676.52
2018-09-01T01:47:19.935Z,99678.75
2018-09-01T01:49:47.609Z,99676.56
2018-09-01T01:52:15.318Z,99679.79
2018-09-01T01:54:43.025Z,99683.34
2018-09-01T01:57:10.805Z,99671.25
2018-09-01T01:59:38.480Z,99673.39
2018-09-01T02:02:06.453Z,99670.97
2018-09-01T02:04:34.154Z,99673.18
2018-09-01T02:07:01.872Z,99673.76
2018-09-01T02:09:29.633Z,99681.80
2018-09-01T02:11:57.349Z,99675.08
2018-09-01T02:14:25.084Z,99683.82
2018-09-01T02:16:52.877Z,99678.72
2018-09-01T02:19:20.577Z,99681.90
2018-09-01T02:21:48.287Z,99685.81
2018-09-01T02:24:16.038Z,99686.94
2018-09-01T02:26:43.742Z,99685.00
2018-09-01T02:29:11.514Z,99688.05
2018-09-01T02:31:39.233Z,99689.91
2018-09-01T02:34:13.545Z,99697.33
2018-09-01T02:36:41.281Z,99690.08
2018-09-01T02:39:08.991Z,99692.23
2018-09-01T02:41:36.691Z,99690.63
2018-09-01T02:44:04.410Z,99684.81
2018-09-01T02:46:32.117Z,99689.06
2018-09-01T02:48:59.793Z,99681.48
2018-09-01T02:51:27.543Z,99688.11
2018-09-01T02:53:55.266Z,99683.13
2018-09-01T02:56:23.074Z,99687.64
2018-09-01T02:58:50.827Z,99684.47
2018-09-01T03:01:24.094Z,99683.94
2018-09-01T03:03:51.842Z,99692.16
2018-09-01T03:06:19.558Z,99688.11
2018-09-01T03:08:47.246Z,99692.55
2018-09-01T03:11:15.078Z,99698.37
2018-09-01T03:13:42.748Z,99699.80
2018-09-01T03:16:10.496Z,99692.08
2018-09-01T03:18:38.219Z,99697.89
2018-09-01T03:21:05.965Z,99699.80
2018-09-01T03:23:33.646Z,99703.34
2018-09-01T03:26:01.368Z,99704.71
2018-09-01T03:28:29.126Z,99704.65
2018-09-01T03:30:56.914Z,99703.31
2018-09-01T03:33:24.706Z,99706.99
2018-09-01T03:35:52.397Z,99709.09
2018-09-01T03:38:20.078Z,99714.39
2018-09-01T03:40:47.837Z,99713.22
2018-09-01T03:43:15.539Z,99714.02
2018-09-01T03:45:43.263Z,99718.47
2018-09-01T03:48:11.098Z,99719.27
2018-09-01T03:50:38.790Z,99722.62
2018-09-01T03:53:06.482Z,99724.05
2018-09-01T03:55:34.214Z,99728.58
2018-09-01T03:58:02.332Z,99720.89
2018-09-01T04:00:30.085Z,99724.33
2018-09-01T04:02:58.109Z,99734.39
2018-09-01T04:05:26.037Z,99729.90
2018-09-01T04:07:53.770Z,99739.43
2018-09-01T04:10:21.696Z,99734.36
2018-09-01T04:12:49.630Z,99730.50
2018-09-01T04:15:17.318Z,99730.59
2018-09-01T04:17:45.019Z,99727.49
2018-09-01T04:20:12.869Z,99732.42
2018-09-01T04:22:40.603Z,99727.33
2018-09-01T04:25:08.394Z,99718.94
2018-09-01T04:27:36.094Z,99722.30
2018-09-01T04:30:03.961Z,99723.19
2018-09-01T04:32:31.695Z,99719.44
2018-09-01T04:34:59.391Z,99715.88
2018-09-01T04:37:27.075Z,99709.33
2018-09-01T04:39:54.795Z,99707.74
2018-09-01T04:42:22.482Z,99701.52
2018-09-01T04:44:50.174Z,99700.17
2018-09-01T04:47:17.976Z,99701.66
2018-09-01T04:49:45.660Z,99700.20
2018-09-01T04:52:13.388Z,99702.69
2018-09-01T04:54:41.101Z,99710.91
2018-09-01T04:57:08.790Z,99707.24
2018-09-01T04:59:36.499Z,99709.39
2018-09-01T05:02:04.283Z,99707.62
2018-09-01T05:04:31.986Z,99706.85
2018-09-01T05:06:59.686Z,99710.44
2018-09-01T05:09:27.405Z,99720.34
2018-09-01T05:11:55.119Z,99736.61
2018-09-01T05:14:22.793Z,99745.27
2018-09-01T05:16:50.606Z,99741.94
2018-09-01T05:19:18.394Z,99743.25
2018-09-01T05:21:46.159Z,99742.75
2018-09-01T05:24:13.888Z,99731.80
2018-09-01T05:26:41.565Z,99723.19
2018-09-01T05:29:09.374Z,99713.30
2018-09-01T05:31:37.094Z,99709.92
2018-09-01T05:34:04.906Z,99713.79
2018-09-01T05:36:32.674Z,99711.48
2018-09-01T05:39:00.413Z,99705.91
2018-09-01T05:41:28.115Z,99707.87
2018-09-01T05:43:55.814Z,99708.56
2018-09-01T05:46:23.529Z,99712.89
2018-09-01T05:48:51.218Z,99723.70
2018-09-01T05:51:18.907Z,99737.48
2018-09-01T05:53:46.640Z,99745.11
2018-09-01T05:56:14.363Z,99758.44
2018-09-01T05:58:42.062Z,99756.84
2018-09-01T06:01:09.882Z,99750.17
2018-09-01T06:03:37.658Z,99743.22
2018-09-01T06:06:05.527Z,99747.77
2018-09-01T06:08:33.134Z,99741.94
2018-09-01T06:11:00.910Z,99730.75
2018-09-01T06:13:28.581Z,99728.86
2018-09-01T06:15:56.302Z,99737.86
2018-09-01T06:18:24.028Z,99731.20
2018-09-01T06:20:51.718Z,99727.94
2018-09-01T06:23:19.453Z,99729.78
2018-09-01T06:25:47.186Z,99720.75
2018-09-01T06:28:18.310Z,99716.63
2018-09-01T06:30:48.436Z,99716.63
2018-09-01T06:33:16.243Z,99712.00
2018-09-01T06:35:43.945Z,99711.97
2018-09-01T06:38:11.781Z,99709.45
2018-09-01T06:40:39.510Z,99702.60
2018-09-01T06:43:07.277Z,99694.16
2018-09-01T06:45:34.989Z,99696.59
2018-09-01T06:48:02.669Z,99693.83
2018-09-01T06:50:30.369Z,99691.09
2018-09-01T06:52:58.106Z,99699.25
2018-09-01T06:55:25.830Z,99705.45
2018-09-01T06:57:53.601Z,99702.63
2018-09-01T07:00:22.692Z,99710.00
2018-09-01T07:02:51.384Z,99716.48
2018-09-01T07:05:19.086Z,99719.69
2018-09-01T07:07:46.837Z,99711.58
2018-09-01T07:10:14.569Z,99714.85
2018-09-01T07:12:42.409Z,99724.00
2018-09-01T07:15:10.117Z,99720.16
2018-09-01T07:17:37.814Z,99716.73
2018-09-01T07:20:05.590Z,99715.91
2018-09-01T07:22:33.305Z,99719.30
2018-09-01T07:25:01.014Z,99717.25
2018-09-01T07:27:28.733Z,99712.36
2018-09-01T07:29:56.454Z,99717.73
2018-09-01T07:32:24.157Z,99720.89
2018-09-01T07:34:51.975Z,99712.24
2018-09-01T07:37:19.789Z,99714.98
2018-09-01T07:39:47.557Z,99712.45
2018-09-01T07:42:15.332Z,99707.45
2018-09-01T07:44:43.165Z,99714.67
2018-09-01T07:47:11.003Z,99714.73
2018-09-01T07:49:38.719Z,99710.57
2018-09-01T07:52:06.609Z,99710.81
2018-09-01T07:54:34.355Z,99708.86
2018-09-01T07:57:02.233Z,99712.06
2018-09-01T07:59:29.995Z,99705.30
2018-09-01T08:01:57.754Z,99703.51
2018-09-01T08:04:25.498Z,99703.92
2018-09-01T08:06:53.246Z,99703.02
2018-09-01T08:09:20.999Z,99694.15
2018-09-01T08:11:48.735Z,99697.64
2018-09-01T08:14:16.637Z,99692.84
2018-09-01T08:16:44.348Z,99695.63
2018-09-01T08:19:12.087Z,99697.76
2018-09-01T08:21:39.813Z,99702.80
2018-09-01T08:24:07.506Z,99702.45
2018-09-01T08:26:35.209Z,99700.11
2018-09-01T08:29:03.023Z,99702.22
2018-09-01T08:31:30.719Z,99701.04
2018-09-01T08:33:58.502Z,99697.91
2018-09-01T08:36:26.270Z,99700.08
2018-09-01T08:38:53.997Z,99696.84
2018-09-01T08:41:21.693Z,99697.75
2018-09-01T08:43:49.689Z,99692.16
2018-09-01T08:46:17.405Z,99696.80
2018-09-01T08:48:45.138Z,99697.33
2018-09-01T08:51:12.869Z,99690.86
2018-09-01T08:53:40.601Z,99682.88
2018-09-01T08:56:08.336Z,99683.53
2018-09-01T08:58:36.129Z,99678.02
2018-09-01T09:01:03.853Z,99676.30
2018-09-01T09:03:31.913Z,99680.59
2018-09-01T09:05:59.947Z,99686.46
2018-09-01T09:08:27.658Z,99678.27
2018-09-01T09:10:55.390Z,99670.41
2018-09-01T09:13:23.138Z,99678.41
2018-09-01T09:15:50.903Z,99666.47
2018-09-01T09:18:18.645Z,99664.96
2018-09-01T09:20:46.510Z,99667.95
2018-09-01T09:23:14.350Z,99667.79
2018-09-01T09:25:42.121Z,99665.56
2018-09-01T09:28:09.900Z,99670.92
2018-09-01T09:30:37.611Z,99658.89
2018-09-01T09:33:05.517Z,99663.61
2018-09-01T09:35:33.260Z,99655.20
2018-09-01T09:38:01.400Z,99665.79
2018-09-01T09:40:29.118Z,99663.23
2018-09-01T09:42:56.903Z,99662.51
2018-09-01T09:45:24.640Z,99661.81
2018-09-01T09:47:52.397Z,99661.38
2018-09-01T09:50:20.133Z,99656.92
2018-09-01T09:52:47.854Z,99652.31
2018-09-01T09:55:15.584Z,99639.84
2018-09-01T09:57:43.324Z,99645.91
2018-09-01T10:00:11.305Z,99640.14
2018-09-01T10:02:39.009Z,99641.98
2018-09-01T10:05:07.217Z,99638.34
2018-09-01T10:07:35.023Z,99637.80
2018-09-01T10:10:02.822Z,99631.14
2018-09-01T10:12:30.602Z,99636.23
2018-09-01T10:14:58.405Z,99626.95
2018-09-01T10:17:26.095Z,99631.47
2018-09-01T10:19:53.840Z,99629.27
2018-09-01T10:22:21.578Z,99624.97
2018-09-01T10:24:49.269Z,99630.54
2018-09-01T10:27:17.113Z,99632.18
2018-09-01T10:29:44.842Z,99629.52
2018-09-01T10:32:12.565Z,99633.63
2018-09-01T10:34:40.352Z,99629.51
2018-09-01T10:37:08.073Z,99616.09
2018-09-01T10:39:36.181Z,99621.81
2018-09-01T10:42:03.945Z,99615.83
2018-09-01T10:44:31.711Z,99615.92
2018-09-01T10:46:59.429Z,99612.30
2018-09-01T10:49:27.265Z,99614.44
2018-09-01T10:51:55.106Z,99621.11
2018-09-01T10:54:22.852Z,99622.63
2018-09-01T10:56:50.641Z,99617.14
2018-09-01T10:59:18.439Z,99609.03
2018-09-01T11:01:46.189Z,99618.81
2018-09-01T11:04:13.956Z,99615.73
2018-09-01T11:06:41.725Z,99613.35
2018-09-01T11:09:10.256Z,99610.27
2018-09-01T11:11:38.024Z,99607.37
2018-09-01T11:14:05.837Z,99604.53
2018-09-01T11:16:33.585Z,99605.59
2018-09-01T11:19:01.333Z,99608.90
2018-09-01T11:21:29.049Z,99612.23
2018-09-01T11:23:56.777Z,99604.86
2018-09-01T11:26:24.618Z,99602.77
2018-09-01T11:28:52.372Z,99591.59
2018-09-01T11:31:20.228Z,99591.38
2018-09-01T11:33:48.159Z,99592.20
2018-09-01T11:36:15.877Z,99596.89
2018-09-01T11:38:43.602Z,99607.70
2018-09-01T11:41:11.337Z,99600.92
2018-09-01T11:43:39.066Z,99599.38
2018-09-01T11:46:06.831Z,99594.44
2018-09-01T11:48:34.656Z,99592.17
2018-09-01T11:51:02.450Z,99580.53
2018-09-01T11:53:30.264Z,99571.82
2018-09-01T11:55:58.889Z,99576.27
2018-09-01T11:58:26.682Z,99571.09
2018-09-01T12:00:54.601Z,99558.80
2018-09-01T12:03:22.338Z,99563.13
2018-09-01T12:05:50.034Z,99555.67
2018-09-01T12:08:17.752Z,99563.08
2018-09-01T12:10:45.496Z,99563.61
2018-09-01T12:13:13.229Z,99555.30
2018-09-01T12:15:41.006Z,99554.97
2018-09-01T12:18:08.856Z,99560.34
2018-09-01T12:20:36.595Z,99569.06
2018-09-01T12:23:04.365Z,99561.36
2018-09-01T12:25:32.182Z,99549.04
2018-09-01T12:27:59.902Z,99551.33
2018-09-01T12:30:27.627Z,99556.09
2018-09-01T12:32:55.352Z,99552.60
2018-09-01T12:35:23.134Z,99548.72
2018-09-01T12:37:50.867Z,99549.86
2018-09-01T12:40:18.632Z,99541.52
2018-09-01T12:42:46.393Z,99535.47
2018-09-01T12:45:14.149Z,99534.22
2018-09-01T12:47:41.924Z,99539.08
2018-09-01T12:50:09.678Z,99533.93
2018-09-01T12:52:37.441Z,99532.32
2018-09-01T12:55:05.301Z,99530.16
2018-09-01T12:57:33.839Z,99527.93
2018-09-01T13:00:01.538Z,99525.30
2018-09-01T13:02:29.441Z,99543.70
2018-09-01T13:04:57.182Z,99547.48
2018-09-01T13:07:24.932Z,99546.70
2018-09-01T13:09:52.680Z,99544.59
2018-09-01T13:12:20.417Z,99540.75
2018-09-01T13:14:48.149Z,99546.53
2018-09-01T13:17:15.921Z,99541.22
2018-09-01T13:19:44.089Z,99544.09
2018-09-01T13:22:11.756Z,99542.13
2018-09-01T13:24:39.776Z,99536.55
2018-09-01T13:27:07.537Z,99538.09
2018-09-01T13:29:35.301Z,99534.63
2018-09-01T13:32:03.138Z,99534.99
2018-09-01T13:34:31.049Z,99532.48
2018-09-01T13:36:59.180Z,99535.12
2018-09-01T13:39:27.015Z,99531.53
2018-09-01T13:41:54.801Z,99536.99
2018-09-01T13:44:22.535Z,99532.52
2018-09-01T13:46:50.337Z,99531.11
2018-09-01T13:49:18.197Z,99522.38
2018-09-01T13:51:45.925Z,99525.22
2018-09-01T13:54:13.712Z,99523.97
2018-09-01T13:56:41.454Z,99527.17
2018-09-01T13:59:09.476Z,99520.00
2018-09-01T14:01:37.264Z,99515.33
2018-09-01T14:04:05.040Z,99516.14
2018-09-01T14:06:32.782Z,99519.63
2018-09-01T14:09:00.553Z,99519.72
2018-09-01T14:11:28.324Z,99514.94
2018-09-01T14:13:56.080Z,99520.44
2018-09-01T14:16:23.858Z,99518.19
2018-09-01T14:18:51.640Z,99521.26
2018-09-01T14:21:19.386Z,99529.09
2018-09-01T14:23:47.187Z,99525.70
2018-09-01T14:26:14.936Z,99526.83
2018-09-01T14:28:42.713Z,99521.56
2018-09-01T14:31:10.554Z,99524.83
2018-09-01T14:33:38.294Z,99525.28
2018-09-01T14:36:06.434Z,99525.63
2018-09-01T14:38:34.299Z,99523.80
2018-09-01T14:41:02.044Z,99525.57
2018-09-01T14:43:29.777Z,99526.87
2018-09-01T14:45:57.626Z,99517.02
2018-09-01T14:48:25.504Z,99518.39
2018-09-01T14:50:53.176Z,99517.31
2018-09-01T14:53:20.987Z,99514.34
2018-09-01T14:55:48.742Z,99515.96
2018-09-01T14:58:16.476Z,99519.97
2018-09-01T15:00:44.278Z,99517.81
2018-09-01T15:03:12.027Z,99523.39
2018-09-01T15:05:39.742Z,99518.95
2018-09-01T15:08:07.724Z,99523.44
2018-09-01T15:10:35.836Z,99528.59
2018-09-01T15:13:03.638Z,99527.19
2018-09-01T15:15:31.415Z,99523.56
2018-09-01T15:17:59.132Z,99527.77
2018-09-01T15:20:27.006Z,99529.37
2018-09-01T15:22:54.804Z,99522.55
2018-09-01T15:25:22.606Z,99526.72
2018-09-01T15:27:50.373Z,99526.85
2018-09-01T15:30:18.232Z,99522.11
2018-09-01T15:32:45.967Z,99524.83
2018-09-01T15:35:13.754Z,99523.44
2018-09-01T15:37:41.513Z,99518.62
2018-09-01T15:40:09.306Z,99517.19
2018-09-01T15:42:37.067Z,99517.50
2018-09-01T15:45:04.903Z,99509.97
2018-09-01T15:47:32.715Z,99517.44
2018-09-01T15:50:00.502Z,99516.20
2018-09-01T15:52:28.292Z,99514.87
2018-09-01T15:54:56.049Z,99517.19
2018-09-01T15:57:23.789Z,99521.80
2018-09-01T15:59:51.630Z,99519.48
2018-09-01T16:02:19.369Z,99516.16
2018-09-01T16:04:47.140Z,99524.38
2018-09-01T16:07:14.944Z,99520.80
2018-09-01T16:09:42.658Z,99522.50
2018-09-01T16:12:10.392Z,99521.30
2018-09-01T16:14:38.145Z,99524.34
2018-09-01T16:17:05.985Z,99524.23
2018-09-01T16:19:33.701Z,99520.41
2018-09-01T16:22:01.441Z,99526.11
2018-09-01T16:24:29.217Z,99523.38
2018-09-01T16:26:56.938Z,99526.95
2018-09-01T16:29:24.691Z,99528.13
2018-09-01T16:31:52.481Z,99526.59
2018-09-01T16:34:20.369Z,99530.50
2018-09-01T16:36:48.142Z,99523.33
2018-09-01T16:39:15.859Z,99524.83
2018-09-01T16:41:43.578Z,99523.43
2018-09-01T16:44:11.324Z,99523.85
2018-09-01T16:46:39.340Z,99519.13
2018-09-01T16:49:07.080Z,99528.70
2018-09-01T16:51:34.864Z,99529.90
2018-09-01T16:54:02.593Z,99531.94
2018-09-01T16:56:30.349Z,99538.47
2018-09-01T16:58:58.177Z,99538.56
2018-09-01T17:01:25.881Z,99540.52
2018-09-01T17:03:53.603Z,99547.16
2018-09-01T17:06:21.359Z,99548.16
2018-09-01T17:08:49.084Z,99550.50
2018-09-01T17:11:16.837Z,99548.38
2018-09-01T17:13:44.710Z,99552.99
2018-09-01T17:16:12.413Z,99552.16
2018-09-01T17:18:40.139Z,99557.89
2018-09-01T17:21:08.257Z,99558.06
2018-09-01T17:23:36.073Z,99556.12
2018-09-01T17:26:04.137Z,99560.41
2018-09-01T17:28:31.862Z,99566.69
2018-09-01T17:30:59.645Z,99560.31
2018-09-01T17:33:27.525Z,99565.49
2018-09-01T17:35:55.243Z,99562.34
2018-09-01T17:38:22.978Z,99567.16
2018-09-01T17:40:50.700Z,99570.69
2018-09-01T17:43:18.417Z,99572.58
2018-09-01T17:45:46.153Z,99575.34
2018-09-01T17:48:14.277Z,99581.16
2018-09-01T17:50:42.081Z,99578.91
2018-09-01T17:53:09.829Z,99578.88
2018-09-01T17:55:37.565Z,99574.59
2018-09-01T17:58:05.297Z,99575.30
2018-09-01T18:00:33.129Z,99570.27
2018-09-01T18:03:00.819Z,99568.74
2018-09-01T18:05:28.549Z,99568.28
2018-09-01T18:07:56.303Z,99575.30
2018-09-01T18:10:24.397Z,99578.45
2018-09-01T18:12:52.162Z,99575.55
2018-09-01T18:15:19.866Z,99580.81
2018-09-01T18:17:47.701Z,99579.88
2018-09-01T18:20:15.413Z,99579.63
2018-09-01T18:22:43.153Z,99585.17
2018-09-01T18:25:10.841Z,99587.11
2018-09-01T18:27:38.590Z,99576.94
2018-09-01T18:30:07.141Z,99581.92
2018-09-01T18:32:34.932Z,99583.03
2018-09-01T18:35:02.674Z,99592.97
2018-09-01T18:37:30.413Z,99587.52
2018-09-01T18:39:58.089Z,99585.84
2018-09-01T18:42:25.845Z,99591.42
2018-09-01T18:44:53.597Z,99584.70
2018-09-01T18:47:21.374Z,99594.63
2018-09-01T18:49:49.191Z,99591.58
2018-09-01T18:52:16.947Z,99595.29
2018-09-01T18:54:44.653Z,99594.31
2018-09-01T18:57:12.390Z,99594.63
2018-09-01T18:59:40.100Z,99597.63
2018-09-01T19:02:07.781Z,99596.67
2018-09-01T19:04:35.601Z,99598.52
2018-09-01T19:07:03.392Z,99597.33
2018-09-01T19:09:31.086Z,99599.91
2018-09-01T19:11:58.813Z,99596.97
2018-09-01T19:14:26.805Z,99593.20
2018-09-01T19:16:54.520Z,99596.80
2018-09-01T19:19:22.269Z,99597.84
2018-09-01T19:21:49.960Z,99594.66
2018-09-01T19:24:17.716Z,99601.06
2018-09-01T19:26:45.464Z,99599.30
2018-09-01T19:29:13.197Z,99598.03
2018-09-01T19:31:40.978Z,99597.95
2018-09-01T19:34:08.802Z,99595.20
2018-09-01T19:36:36.546Z,99592.09
2018-09-01T19:39:06.170Z,99595.82
2018-09-01T19:41:33.915Z,99596.89
2018-09-01T19:44:01.635Z,99599.34
2018-09-01T19:46:29.341Z,99601.91
2018-09-01T19:48:57.049Z,99603.96
2018-09-01T19:51:24.869Z,99602.34
2018-09-01T19:53:52.474Z,99602.22
2018-09-01T19:56:20.203Z,99600.98
2018-09-01T19:58:47.913Z,99602.84
2018-09-01T20:01:15.656Z,99605.89
2018-09-01T20:03:43.367Z,99614.90
2018-09-01T20:06:11.061Z,99609.02
2018-09-01T20:08:39.070Z,99612.86
2018-09-01T20:11:06.821Z,99615.11
2018-09-01T20:13:34.553Z,99617.77
2018-09-01T20:16:02.269Z,99616.23
2018-09-01T20:18:30.014Z,99607.84
2018-09-01T20:20:57.780Z,99620.16
2018-09-01T20:23:25.750Z,99621.89
2018-09-01T20:25:53.461Z,99616.14
2018-09-01T20:28:21.164Z,99621.19
2018-09-01T20:30:48.862Z,99625.38
2018-09-01T20:33:16.608Z,99627.37
2018-09-01T20:35:49.820Z,99626.36
2018-09-01T20:38:17.557Z,99628.36
2018-09-01T20:40:45.366Z,99633.48
2018-09-01T20:43:13.072Z,99627.64
2018-09-01T20:45:40.897Z,99627.16
2018-09-01T20:48:08.626Z,99634.05
2018-09-01T20:50:36.326Z,99629.38
2018-09-01T20:53:04.090Z,99627.94
2018-09-01T20:55:31.821Z,99622.72
2018-09-01T20:57:59.519Z,99627.69
2018-09-01T21:00:27.304Z,99631.06
2018-09-01T21:02:55.043Z,99631.37
2018-09-01T21:05:22.781Z,99633.36
2018-09-01T21:07:50.589Z,99637.75
2018-09-01T21:10:18.264Z,99637.50
2018-09-01T21:12:45.985Z,99632.83
2018-09-01T21:15:13.693Z,99634.42
2018-09-01T21:17:41.401Z,99635.37
2018-09-01T21:20:09.144Z,99631.05
2018-09-01T21:22:36.892Z,99633.94
2018-09-01T21:25:04.811Z,99634.21
2018-09-01T21:27:32.533Z,99631.20
2018-09-01T21:30:00.278Z,99629.81
2018-09-01T21:32:28.069Z,99634.00
2018-09-01T21:34:55.810Z,99642.50
2018-09-01T21:37:23.577Z,99639.41
2018-09-01T21:39:51.309Z,99644.89
2018-09-01T21:42:19.040Z,99635.23
2018-09-01T21:44:46.783Z,99641.03
2018-09-01T21:47:14.584Z,99639.25
2018-09-01T21:49:42.335Z,99649.22
2018-09-01T21:52:10.094Z,99646.77
2018-09-01T21:54:37.783Z,99648.05
2018-09-01T21:57:05.798Z,99658.84
2018-09-01T21:59:33.645Z,99650.28
2018-09-01T22:02:06.872Z,99657.48
2018-09-01T22:04:40.094Z,99649.50
2018-09-01T22:07:07.797Z,99651.48
2018-09-01T22:09:35.485Z,99651.29
2018-09-01T22:12:03.173Z,99648.63
2018-09-01T22:14:30.867Z,99642.61
2018-09-01T22:16:58.570Z,99644.00
2018-09-01T22:19:26.317Z,99644.95
2018-09-01T22:21:54.026Z,99643.61
2018-09-01T22:24:21.727Z,99648.91
2018-09-01T22:26:49.459Z,99644.53
2018-09-01T22:29:17.129Z,99643.45
2018-09-01T22:31:44.822Z,99644.05
2018-09-01T22:34:12.548Z,99645.47
2018-09-01T22:36:40.219Z,99646.57
2018-09-01T22:39:07.949Z,99645.53
2018-09-01T22:41:35.650Z,99653.27
2018-09-01T22:44:03.355Z,99650.58
2018-09-01T22:46:31.125Z,99652.25
2018-09-01T22:48:58.843Z,99651.43
2018-09-01T22:51:26.568Z,99653.97
2018-09-01T22:53:54.238Z,99651.03
2018-09-01T22:56:21.950Z,99650.45
2018-09-01T22:58:49.633Z,99644.16
2018-09-01T23:01:17.314Z,99641.38
2018-09-01T23:03:45.028Z,99648.53
2018-09-01T23:06:12.669Z,99643.63
2018-09-01T23:08:40.329Z,99646.97
2018-09-01T23:11:08.021Z,99640.38
2018-09-01T23:13:35.702Z,99639.84
2018-09-01T23:16:03.418Z,99640.16
2018-09-01T23:18:31.117Z,99644.89
2018-09-01T23:20:58.868Z,99647.39
2018-09-01T23:23:26.533Z,99652.31
2018-09-01T23:25:54.264Z,99650.98
2018-09-01T23:28:21.925Z,99649.33
2018-09-01T23:30:49.611Z,99651.83
2018-09-01T23:33:17.326Z,99655.41
2018-09-01T23:35:45.006Z,99662.61
2018-09-01T23:38:12.675Z,99661.20
2018-09-01T23:40:40.384Z,99652.63
2018-09-01T23:43:08.066Z,99663.67
2018-09-01T23:45:35.725Z,99660.92
2018-09-01T23:48:03.442Z,99659.25
2018-09-01T23:50:31.119Z,99659.00
2018-09-01T23:52:58.822Z,99658.45
2018-09-01T23:55:26.570Z,99657.39
2018-09-01T23:57:54.254Z,99663.46
